Time;durP1;ratioP1;P1;durP2;ratioP2;P2;SDS_P1;SDS_P2;PMS_P1;PMS_P2;Temp;Humidity;BMP_temperature;BMP_pressure;BME280_temperature;BME280_humidity;BME280_pressure;Samples;Min_cycle;Max_cycle;Signal;HPM_P1;HPM_P2
2022/09/28 00:02:02;;;;;;;28.42;5.25;;;19.70;88.10;;;;;;4973850;28;20114;-65
2022/09/28 00:04:27;;;;;;;30.52;5.38;;;19.70;88.20;;;;;;4956428;28;20118;-65
2022/09/28 00:06:53;;;;;;;27.20;5.35;;;19.60;88.80;;;;;;4974063;28;20077;-66
2022/09/28 00:09:19;;;;;;;28.45;5.90;;;19.60;89.00;;;;;;4973956;28;20476;-67
2022/09/28 00:11:45;;;;;;;23.45;5.32;;;19.60;88.90;;;;;;4973960;28;20094;-67
2022/09/28 00:14:11;;;;;;;22.42;5.38;;;19.60;89.10;;;;;;4974009;28;20030;-66
2022/09/28 00:16:42;;;;;;;24.00;5.10;;;19.60;89.00;;;;;;4974199;28;20080;-66
2022/09/28 00:19:09;;;;;;;27.33;4.63;;;19.60;89.00;;;;;;4974043;28;20074;-65
2022/09/28 00:21:37;;;;;;;25.83;4.32;;;19.60;89.00;;;;;;4974068;28;20023;-66
2022/09/28 00:24:14;;;;;;;36.05;6.50;;;19.60;89.00;;;;;;4973743;28;20023;-66
2022/09/28 00:26:53;;;;;;;18.92;4.65;;;19.60;89.20;;;;;;4974002;28;20077;-66
2022/09/28 00:29:28;;;;;;;32.38;5.57;;;19.60;89.30;;;;;;4973896;28;20023;-65
2022/09/28 00:31:58;;;;;;;28.42;5.13;;;19.60;89.20;;;;;;4973853;28;20027;-65
2022/09/28 00:34:32;;;;;;;28.13;4.95;;;19.60;89.30;;;;;;4973678;28;20113;-67
2022/09/28 00:36:59;;;;;;;27.98;5.32;;;19.60;89.60;;;;;;4973556;28;20384;-65
2022/09/28 00:39:25;;;;;;;30.58;5.40;;;19.50;89.50;;;;;;4973538;28;20487;-66
2022/09/28 00:41:52;;;;;;;26.30;4.80;;;19.50;90.10;;;;;;4973845;28;20061;-64
2022/09/28 00:44:24;;;;;;;28.60;5.20;;;19.60;89.50;;;;;;4973809;28;20030;-66
2022/09/28 00:47:19;;;;;;;27.65;5.35;;;19.60;89.50;;;;;;4973623;28;20504;-66
2022/09/28 00:50:17;;;;;;;24.02;4.95;;;19.60;89.70;;;;;;4973480;28;20038;-66
2022/09/28 00:52:58;;;;;;;24.55;4.72;;;19.60;89.30;;;;;;4965507;28;20039;-64
2022/09/28 00:55:38;;;;;;;28.27;5.68;;;19.60;89.10;;;;;;4973326;28;20023;-65
2022/09/28 00:58:06;;;;;;;26.90;4.90;;;19.70;89.00;;;;;;4973419;28;20023;-67
2022/09/28 01:00:32;;;;;;;27.90;5.47;;;19.60;89.10;;;;;;4955976;28;20345;-66
2022/09/28 01:02:58;;;;;;;27.95;4.53;;;19.60;89.00;;;;;;4973558;28;20058;-66
2022/09/28 01:05:26;;;;;;;19.27;4.40;;;19.60;89.20;;;;;;4973143;28;20039;-66
2022/09/28 01:07:54;;;;;;;31.85;5.15;;;19.60;89.30;;;;;;4973168;28;20031;-65
2022/09/28 01:10:20;;;;;;;29.35;5.07;;;19.60;89.80;;;;;;4973192;28;20073;-65
2022/09/28 01:12:46;;;;;;;28.92;5.18;;;19.60;89.30;;;;;;4976979;28;20108;-66
2022/09/28 01:15:13;;;;;;;28.17;4.90;;;19.50;89.30;;;;;;4976985;28;20181;-67
2022/09/28 01:17:54;;;;;;;23.42;5.00;;;19.50;89.40;;;;;;4976827;28;20381;-67
2022/09/28 01:21:08;;;;;;;25.67;4.80;;;19.50;89.60;;;;;;4977032;28;20142;-66
2022/09/28 01:24:03;;;;;;;27.47;4.97;;;19.50;89.10;;;;;;4976563;28;20043;-66
2022/09/28 01:26:54;;;;;;;22.90;4.88;;;19.50;89.20;;;;;;4958822;28;20286;-66
2022/09/28 01:29:26;;;;;;;23.77;4.57;;;19.50;89.50;;;;;;4976881;28;20109;-66
2022/09/28 01:32:00;;;;;;;27.27;5.20;;;19.50;89.20;;;;;;4976717;28;20026;-65
2022/09/28 01:34:36;;;;;;;23.85;4.88;;;19.40;89.00;;;;;;4998565;28;20034;-66
2022/09/28 01:37:05;;;;;;;23.15;4.45;;;19.40;89.20;;;;;;5015288;28;20030;-66
2022/09/28 01:39:38;;;;;;;28.92;5.30;;;19.40;89.30;;;;;;5015191;28;20034;-65
2022/09/28 01:42:18;;;;;;;28.48;5.05;;;19.40;89.30;;;;;;5015327;28;20060;-65
2022/09/28 01:44:47;;;;;;;25.10;4.90;;;19.30;89.40;;;;;;5015225;28;20057;-65
2022/09/28 01:47:16;;;;;;;19.75;4.30;;;19.30;89.50;;;;;;5014598;28;20183;-65
2022/09/28 01:49:59;;;;;;;24.52;5.00;;;19.30;89.50;;;;;;5015202;28;20029;-65
2022/09/28 01:52:33;;;;;;;23.83;5.20;;;19.30;89.90;;;;;;5015412;28;20025;-66
2022/09/28 01:55:27;;;;;;;25.83;4.93;;;19.30;89.30;;;;;;5015290;28;20048;-67
2022/09/28 01:58:02;;;;;;;25.30;4.25;;;19.30;89.90;;;;;;5015090;28;20095;-66
2022/09/28 02:00:27;;;;;;;33.10;5.20;;;19.20;89.50;;;;;;5014688;28;20050;-67
2022/09/28 02:03:29;;;;;;;22.65;4.63;;;19.20;89.90;;;;;;5014898;28;20029;-65
2022/09/28 02:06:01;;;;;;;32.20;5.30;;;19.10;90.20;;;;;;4997784;28;20110;-66
2022/09/28 02:08:56;;;;;;;23.95;5.10;;;19.10;90.10;;;;;;5014642;28;20042;-66
2022/09/28 02:11:22;;;;;;;26.63;5.00;;;19.10;90.30;;;;;;5015148;28;20104;-65
2022/09/28 02:14:00;;;;;;;24.13;5.30;;;19.10;90.10;;;;;;5014679;28;20045;-65
2022/09/28 02:16:44;;;;;;;27.40;4.70;;;19.10;90.30;;;;;;5014908;28;20037;-65
2022/09/28 02:19:14;;;;;;;24.95;5.60;;;19.00;90.00;;;;;;4997203;28;20054;-65
2022/09/28 02:21:53;;;;;;;23.75;4.70;;;19.00;90.20;;;;;;5014964;28;20037;-67
2022/09/28 02:24:23;;;;;;;20.88;4.97;;;19.00;90.80;;;;;;5013847;28;20121;-65
2022/09/28 02:26:50;;;;;;;23.55;5.10;;;19.00;90.50;;;;;;5014689;28;20033;-65
2022/09/28 02:29:16;;;;;;;26.50;4.63;;;18.90;90.40;;;;;;5014655;28;20098;-66
2022/09/28 02:31:42;;;;;;;26.25;5.13;;;18.80;90.50;;;;;;5014336;28;20088;-65
2022/09/28 02:34:09;;;;;;;29.13;5.82;;;18.80;90.70;;;;;;5014503;28;20037;-66
2022/09/28 02:36:35;;;;;;;30.63;5.65;;;18.70;90.60;;;;;;5014389;28;20101;-65
2022/09/28 02:39:01;;;;;;;29.65;5.35;;;18.70;90.60;;;;;;5014483;28;20032;-66
2022/09/28 02:41:54;;;;;;;24.83;5.18;;;18.70;90.70;;;;;;5014551;28;20018;-66
2022/09/28 02:44:29;;;;;;;20.20;4.43;;;18.70;90.90;;;;;;5014185;28;20030;-66
2022/09/28 02:47:42;;;;;;;29.15;4.90;;;18.60;90.80;;;;;;4996407;28;20060;-65
2022/09/28 02:50:41;;;;;;;27.00;4.80;;;18.60;90.90;;;;;;4934470;29;20043;-67
2022/09/28 02:53:29;;;;;;;34.17;5.45;;;18.50;90.90;;;;;;5013971;28;20034;-67
2022/09/28 02:56:03;;;;;;;24.27;4.28;;;18.50;91.00;;;;;;5014018;28;20447;-65
2022/09/28 02:58:41;;;;;;;25.67;5.75;;;18.50;91.00;;;;;;5013804;28;20037;-66
2022/09/28 03:01:22;;;;;;;26.13;4.80;;;18.40;90.80;;;;;;5014150;28;20395;-66
2022/09/28 03:04:26;;;;;;;22.98;4.85;;;18.40;91.00;;;;;;5013893;28;20052;-65
2022/09/28 03:07:24;;;;;;;21.88;4.40;;;18.40;90.80;;;;;;4973559;28;20061;-67
2022/09/28 03:10:16;;;;;;;22.17;5.95;;;18.30;91.20;;;;;;5013777;28;20209;-66
2022/09/28 03:12:45;;;;;;;22.15;4.15;;;18.30;91.00;;;;;;5013774;28;20091;-65
2022/09/28 03:15:18;;;;;;;18.33;4.32;;;18.30;90.80;;;;;;5013444;28;20022;-65
2022/09/28 03:17:44;;;;;;;24.33;4.55;;;18.30;91.00;;;;;;4995914;28;20042;-67
2022/09/28 03:20:10;;;;;;;26.30;5.70;;;18.30;90.70;;;;;;5013584;28;20033;-65
2022/09/28 03:22:37;;;;;;;27.83;5.28;;;18.30;90.80;;;;;;5013700;28;20033;-66
2022/09/28 03:25:04;;;;;;;25.35;3.95;;;18.30;90.70;;;;;;5013692;28;20113;-67
2022/09/28 03:27:29;;;;;;;24.13;5.28;;;18.30;90.90;;;;;;5013491;28;20036;-67
2022/09/28 03:29:55;;;;;;;31.95;4.88;;;18.30;90.80;;;;;;4995686;28;20108;-67
2022/09/28 03:32:21;;;;;;;28.27;4.85;;;18.20;90.70;;;;;;5013039;28;20095;-64
2022/09/28 03:34:46;;;;;;;23.50;5.03;;;18.20;90.70;;;;;;5012820;28;20034;-65
2022/09/28 03:37:12;;;;;;;22.70;4.25;;;18.20;90.80;;;;;;5012947;28;20029;-65
2022/09/28 03:39:38;;;;;;;21.67;4.57;;;18.20;90.80;;;;;;5012739;28;20021;-66
2022/09/28 03:42:04;;;;;;;20.40;4.63;;;18.20;90.80;;;;;;5012854;28;20471;-67
2022/09/28 03:44:29;;;;;;;21.10;5.03;;;18.20;90.70;;;;;;5012942;28;20026;-66
2022/09/28 03:46:55;;;;;;;23.75;4.53;;;18.20;90.70;;;;;;5013019;28;20034;-67
2022/09/28 03:49:21;;;;;;;23.50;4.53;;;18.20;90.70;;;;;;5012965;28;20033;-65
2022/09/28 03:51:47;;;;;;;18.90;4.70;;;18.20;90.70;;;;;;5012802;28;20104;-66
2022/09/28 03:54:12;;;;;;;24.63;5.32;;;18.20;90.80;;;;;;5012804;28;20018;-66
2022/09/28 03:56:38;;;;;;;25.40;5.35;;;18.20;90.70;;;;;;4995305;28;20391;-67
2022/09/28 03:59:04;;;;;;;24.27;4.88;;;18.20;90.60;;;;;;4995042;28;20091;-67
2022/09/28 04:01:30;;;;;;;18.88;4.30;;;18.30;90.70;;;;;;5012726;28;20418;-66
2022/09/28 04:03:56;;;;;;;24.05;5.45;;;18.30;90.50;;;;;;5012722;28;20030;-65
2022/09/28 04:06:23;;;;;;;19.30;4.25;;;18.30;90.60;;;;;;5012747;28;20029;-66
2022/09/28 04:08:49;;;;;;;17.85;4.07;;;18.40;90.40;;;;;;5012717;28;20054;-66
2022/09/28 04:11:14;;;;;;;25.25;4.93;;;18.40;90.40;;;;;;5012856;28;20333;-66
2022/09/28 04:13:40;;;;;;;22.17;4.40;;;18.40;90.40;;;;;;5012473;28;20108;-67
2022/09/28 04:16:06;;;;;;;23.95;4.47;;;18.40;90.40;;;;;;5012418;28;20108;-67
2022/09/28 04:18:32;;;;;;;21.20;4.00;;;18.40;90.40;;;;;;5012384;28;20041;-66
2022/09/28 04:21:05;;;;;;;26.40;4.78;;;18.40;90.30;;;;;;5012574;28;20467;-67
2022/09/28 04:23:32;;;;;;;23.00;4.97;;;18.40;90.20;;;;;;5012567;28;20037;-67
2022/09/28 04:25:58;;;;;;;24.73;5.22;;;18.50;90.20;;;;;;5012434;28;20765;-67
2022/09/28 04:31:14;;;;;;;23.63;5.18;;;18.50;90.20;;;;;;5012854;28;20382;-65
2022/09/28 04:33:40;;;;;;;19.42;4.82;;;18.50;90.10;;;;;;5012420;28;20101;-69
2022/09/28 04:36:06;;;;;;;26.10;4.88;;;18.50;90.50;;;;;;5012383;28;20065;-68
2022/09/28 04:38:32;;;;;;;21.88;4.93;;;18.50;90.30;;;;;;5012294;28;20037;-65
2022/09/28 04:40:58;;;;;;;18.48;4.82;;;18.50;90.20;;;;;;5012523;28;20032;-67
2022/09/28 04:43:24;;;;;;;22.98;4.72;;;18.50;90.20;;;;;;5012386;28;20018;-67
2022/09/28 04:45:49;;;;;;;23.77;5.05;;;18.50;90.20;;;;;;5012988;28;20392;-67
2022/09/28 04:48:15;;;;;;;25.98;4.68;;;18.60;90.30;;;;;;5016351;28;20026;-66
2022/09/28 04:50:41;;;;;;;20.77;4.50;;;18.60;90.30;;;;;;5016167;28;20109;-66
2022/09/28 04:53:06;;;;;;;28.35;5.43;;;18.60;90.20;;;;;;5016247;28;20395;-67
2022/09/28 04:55:32;;;;;;;22.08;4.60;;;18.60;90.20;;;;;;5016219;28;20034;-65
2022/09/28 04:58:02;;;;;;;26.02;4.43;;;18.70;90.20;;;;;;5016231;28;20025;-66
2022/09/28 05:00:34;;;;;;;22.67;5.18;;;18.70;90.20;;;;;;5015950;28;20104;-65
2022/09/28 05:03:00;;;;;;;20.67;5.30;;;18.70;90.10;;;;;;5016006;28;20026;-66
2022/09/28 05:05:26;;;;;;;21.20;4.78;;;18.80;89.70;;;;;;5015841;28;20053;-65
2022/09/28 05:07:51;;;;;;;23.48;4.65;;;18.80;90.10;;;;;;5015651;28;20084;-67
2022/09/28 05:10:18;;;;;;;26.98;5.07;;;18.80;90.10;;;;;;5015740;28;20029;-67
2022/09/28 05:12:44;;;;;;;21.70;4.43;;;18.80;90.00;;;;;;5015798;28;20387;-67
2022/09/28 05:15:10;;;;;;;22.80;5.15;;;18.90;90.00;;;;;;5015782;28;20084;-67
2022/09/28 05:17:36;;;;;;;26.80;5.60;;;18.90;89.80;;;;;;4998213;28;20376;-68
2022/09/28 05:20:02;;;;;;;23.50;5.75;;;18.90;89.70;;;;;;5015345;28;20124;-65
2022/09/28 05:22:28;;;;;;;20.38;5.22;;;19.00;89.70;;;;;;4997710;28;20476;-66
2022/09/28 05:24:53;;;;;;;27.27;4.82;;;19.00;89.80;;;;;;5015132;28;20033;-69
2022/09/28 05:27:20;;;;;;;26.17;5.00;;;19.00;89.60;;;;;;5015454;28;20061;-67
2022/09/28 05:29:46;;;;;;;25.80;4.95;;;19.10;89.50;;;;;;5015360;28;20054;-70
2022/09/28 05:32:11;;;;;;;27.83;5.53;;;19.10;89.40;;;;;;5015400;28;20069;-66
2022/09/28 05:34:37;;;;;;;22.17;4.80;;;19.10;89.30;;;;;;5015246;28;20034;-65
2022/09/28 05:37:03;;;;;;;19.35;5.50;;;19.10;89.40;;;;;;4997407;28;20022;-67
2022/09/28 05:39:28;;;;;;;29.58;6.25;;;19.10;89.10;;;;;;5015179;28;20037;-67
2022/09/28 05:41:56;;;;;;;24.20;5.55;;;19.10;89.00;;;;;;5015226;28;20053;-67
2022/09/28 05:44:23;;;;;;;28.33;5.55;;;19.10;89.00;;;;;;4985940;28;20039;-66
2022/09/28 05:46:49;;;;;;;32.55;5.47;;;19.10;88.80;;;;;;4976030;28;20031;-68
2022/09/28 05:49:15;;;;;;;29.10;6.40;;;19.10;88.80;;;;;;4975965;28;20023;-67
2022/09/28 05:51:41;;;;;;;34.95;6.13;;;19.10;89.10;;;;;;4975819;28;20041;-68
2022/09/28 05:54:07;;;;;;;28.58;5.30;;;19.10;88.90;;;;;;4975557;28;20476;-68
2022/09/28 05:56:33;;;;;;;23.48;6.60;;;19.20;88.50;;;;;;4975597;28;20385;-66
2022/09/28 05:58:58;;;;;;;25.00;5.45;;;19.20;88.80;;;;;;4957006;28;20476;-66
2022/09/28 06:01:24;;;;;;;29.33;5.30;;;19.20;88.60;;;;;;4976010;28;20015;-70
2022/09/28 06:03:50;;;;;;;28.90;5.53;;;19.20;88.70;;;;;;4975520;28;20126;-69
2022/09/28 06:06:15;;;;;;;17.65;4.53;;;19.10;88.50;;;;;;4975568;28;20023;-66
2022/09/28 06:08:45;;;;;;;26.25;4.70;;;19.10;88.50;;;;;;4989620;28;20054;-67
2022/09/28 06:11:11;;;;;;;24.83;5.32;;;19.10;88.60;;;;;;5015081;28;20052;-71
2022/09/28 06:13:38;;;;;;;19.48;4.65;;;19.10;88.60;;;;;;5014828;28;20076;-69
2022/09/28 06:16:06;;;;;;;19.52;4.95;;;19.10;88.70;;;;;;5014713;28;20026;-67
2022/09/28 06:18:32;;;;;;;20.42;4.30;;;19.10;88.70;;;;;;5005174;28;20042;-70
2022/09/28 06:20:58;;;;;;;25.10;5.68;;;19.10;88.80;;;;;;4995019;28;20033;-71
2022/09/28 06:23:24;;;;;;;24.90;5.57;;;19.10;88.70;;;;;;4994988;28;20486;-70
2022/09/28 06:25:49;;;;;;;21.75;5.30;;;19.10;88.70;;;;;;4985793;28;20037;-71
2022/09/28 06:28:15;;;;;;;23.45;5.57;;;19.20;88.70;;;;;;4994876;28;20034;-72
2022/09/28 06:30:42;;;;;;;22.10;4.97;;;19.20;88.30;;;;;;4995070;28;20486;-70
2022/09/28 06:33:11;;;;;;;26.60;5.75;;;19.20;87.90;;;;;;4995424;28;20424;-69
2022/09/28 06:35:37;;;;;;;24.58;5.75;;;19.20;87.80;;;;;;4994781;28;20030;-68
2022/09/28 06:38:03;;;;;;;20.25;4.35;;;19.30;87.60;;;;;;4994699;28;20030;-68
2022/09/28 06:40:29;;;;;;;23.70;4.93;;;19.30;87.40;;;;;;4994479;28;20403;-69
2022/09/28 06:43:10;;;;;;;26.40;5.55;;;19.40;87.10;;;;;;4994590;28;20037;-69
2022/09/28 06:45:37;;;;;;;21.98;4.57;;;19.50;86.40;;;;;;4994399;28;20030;-70
2022/09/28 06:48:04;;;;;;;26.05;5.35;;;19.60;85.70;;;;;;4994673;28;20517;-71
2022/09/28 06:50:36;;;;;;;28.55;5.60;;;19.70;85.10;;;;;;4977088;28;20036;-70
2022/09/28 06:53:05;;;;;;;22.50;5.03;;;19.80;84.50;;;;;;4994061;28;20028;-70
2022/09/28 06:55:31;;;;;;;22.23;5.50;;;20.00;84.20;;;;;;4994369;28;20066;-68
2022/09/28 06:57:58;;;;;;;22.98;4.68;;;20.10;83.30;;;;;;4994072;28;20380;-69
2022/09/28 07:00:26;;;;;;;18.80;4.13;;;20.20;83.10;;;;;;4994044;28;20042;-70
2022/09/28 07:02:51;;;;;;;26.77;4.88;;;20.40;82.00;;;;;;4994133;28;20026;-70
2022/09/28 07:05:18;;;;;;;27.80;5.97;;;20.60;81.90;;;;;;4975760;28;20503;-70
2022/09/28 07:07:44;;;;;;;17.58;4.43;;;20.80;81.20;;;;;;4974269;28;20129;-69
2022/09/28 07:10:11;;;;;;;19.70;3.92;;;21.00;80.00;;;;;;4974408;28;20031;-69
2022/09/28 07:12:38;;;;;;;19.88;4.80;;;21.20;78.70;;;;;;4975352;28;20030;-70
2022/09/28 07:15:06;;;;;;;19.20;4.35;;;21.40;78.20;;;;;;4957178;28;20046;-69
2022/09/28 07:17:33;;;;;;;24.95;4.88;;;21.60;77.70;;;;;;4974799;28;20033;-69
2022/09/28 07:19:59;;;;;;;21.13;4.30;;;21.70;76.80;;;;;;4974271;28;20047;-69
2022/09/28 07:22:25;;;;;;;17.17;4.22;;;21.80;75.30;;;;;;4974718;28;20019;-69
2022/09/28 07:24:50;;;;;;;18.42;4.03;;;21.90;74.70;;;;;;4974300;28;20111;-69
2022/09/28 07:27:16;;;;;;;22.40;5.20;;;22.00;74.10;;;;;;4974278;28;20412;-68
2022/09/28 07:29:42;;;;;;;23.20;4.57;;;22.10;74.00;;;;;;4974268;28;20093;-69
2022/09/28 07:32:08;;;;;;;20.70;4.25;;;22.20;73.80;;;;;;4974386;28;20023;-68
2022/09/28 07:34:42;;;;;;;20.02;4.40;;;22.30;72.60;;;;;;4974164;28;20035;-68
2022/09/28 07:37:10;;;;;;;14.95;4.22;;;22.40;72.30;;;;;;4974348;28;20069;-69
2022/09/28 07:42:26;;;;;;;17.40;4.30;;;22.70;71.70;;;;;;4974361;28;20176;-69
2022/09/28 07:44:53;;;;;;;22.60;4.45;;;22.80;69.90;;;;;;4973812;28;20026;-69
2022/09/28 07:47:25;;;;;;;17.65;4.07;;;22.80;69.70;;;;;;4973900;28;20035;-70
2022/09/28 07:49:55;;;;;;;19.50;4.07;;;22.70;70.30;;;;;;4973776;28;20122;-68
2022/09/28 07:52:25;;;;;;;22.35;3.92;;;22.70;68.60;;;;;;4973638;28;20031;-70
2022/09/28 07:54:53;;;;;;;20.38;4.68;;;22.60;69.10;;;;;;4973504;28;20525;-70
2022/09/28 07:57:22;;;;;;;24.15;4.03;;;22.70;70.30;;;;;;4973520;28;20035;-69
2022/09/28 07:59:48;;;;;;;17.25;3.88;;;22.70;68.60;;;;;;4973523;28;20039;-71
2022/09/28 08:02:18;;;;;;;20.80;3.53;;;22.70;68.50;;;;;;4973621;28;20023;-69
2022/09/28 08:04:45;;;;;;;20.55;3.60;;;22.80;69.30;;;;;;4973462;28;20066;-70
2022/09/28 08:07:11;;;;;;;20.85;3.95;;;22.90;66.90;;;;;;4973351;28;20031;-68
2022/09/28 08:09:37;;;;;;;20.20;4.00;;;22.90;66.70;;;;;;4956073;28;20030;-71
2022/09/28 08:12:03;;;;;;;18.27;3.45;;;22.90;67.60;;;;;;4973558;28;20054;-70
2022/09/28 08:14:33;;;;;;;17.98;4.10;;;22.90;66.70;;;;;;4973182;28;20034;-70
2022/09/28 08:17:02;;;;;;;16.65;4.38;;;22.90;67.60;;;;;;4973592;28;20029;-69
2022/09/28 08:22:13;;;;;;;18.20;4.35;;;23.00;66.00;;;;;;4976774;28;20107;-70
2022/09/28 08:24:39;;;;;;;17.63;4.40;;;23.10;67.10;;;;;;4977213;28;20050;-69
2022/09/28 08:27:06;;;;;;;20.98;4.20;;;23.20;65.90;;;;;;4977052;28;20473;-69
2022/09/28 08:29:31;;;;;;;18.08;3.90;;;23.20;65.30;;;;;;4977032;28;20041;-69
2022/09/28 08:32:00;;;;;;;14.52;3.97;;;23.30;65.90;;;;;;4976810;28;20027;-70
2022/09/28 08:34:26;;;;;;;23.98;4.25;;;23.40;64.50;;;;;;4976991;28;20102;-70
2022/09/28 08:36:52;;;;;;;16.42;3.65;;;23.50;64.80;;;;;;4977336;28;20201;-70
2022/09/28 08:39:18;;;;;;;20.42;3.85;;;23.50;64.60;;;;;;4959540;28;20034;-69
2022/09/28 08:42:07;;;;;;;20.55;3.55;;;23.50;64.60;;;;;;4976863;28;20037;-70
2022/09/28 08:44:56;;;;;;;16.50;3.63;;;23.50;63.80;;;;;;4976739;28;20042;-71
2022/09/28 08:50:33;;;;;;;13.80;3.88;;;23.40;64.20;;;;;;4977060;28;20508;-71
2022/09/28 08:53:14;;;;;;;16.27;3.88;;;23.40;64.40;;;;;;4976606;28;20031;-68
2022/09/28 08:55:42;;;;;;;23.50;4.47;;;23.40;64.00;;;;;;4976961;28;20201;-70
2022/09/28 08:58:15;;;;;;;16.65;3.97;;;23.40;64.10;;;;;;4976473;28;20468;-70
2022/09/28 09:00:51;;;;;;;19.88;4.57;;;23.40;63.20;;;;;;4976332;28;20467;-69
2022/09/28 09:03:22;;;;;;;16.08;3.60;;;23.40;63.70;;;;;;4976312;28;20377;-68
2022/09/28 09:06:01;;;;;;;18.83;3.50;;;23.30;63.80;;;;;;4976423;28;20034;-71
2022/09/28 09:08:29;;;;;;;14.70;3.47;;;23.40;64.20;;;;;;4976352;28;20071;-69
2022/09/28 09:11:19;;;;;;;12.88;2.83;;;23.30;62.80;;;;;;4976782;28;20023;-70
2022/09/28 09:13:48;;;;;;;18.25;3.70;;;23.30;62.60;;;;;;4976350;28;20029;-71
2022/09/28 09:16:14;;;;;;;17.92;3.70;;;23.30;62.70;;;;;;4976514;28;20034;-71
2022/09/28 09:18:52;;;;;;;16.90;3.67;;;23.30;64.00;;;;;;4976565;28;20027;-69
2022/09/28 09:21:39;;;;;;;18.27;3.55;;;23.30;64.10;;;;;;4976378;28;20031;-71
2022/09/28 09:24:26;;;;;;;14.32;3.38;;;23.30;62.80;;;;;;4976000;28;20369;-69
2022/09/28 09:27:05;;;;;;;17.45;4.13;;;23.40;64.00;;;;;;4976008;28;20046;-71
2022/09/28 09:29:50;;;;;;;13.85;3.72;;;23.40;64.00;;;;;;4976120;28;20022;-68
2022/09/28 09:32:28;;;;;;;18.05;3.70;;;23.40;62.80;;;;;;4958144;28;20074;-69
2022/09/28 09:35:08;;;;;;;14.98;4.03;;;23.50;62.90;;;;;;4975712;28;20023;-71
2022/09/28 09:38:05;;;;;;;17.98;3.97;;;23.70;63.50;;;;;;4976126;28;20058;-70
2022/09/28 09:40:58;;;;;;;18.25;4.18;;;23.80;62.40;;;;;;4975935;28;20054;-71
2022/09/28 09:43:32;;;;;;;16.95;3.67;;;23.90;62.10;;;;;;4976211;28;20023;-71
2022/09/28 09:46:22;;;;;;;18.42;3.33;;;24.00;62.00;;;;;;4975920;28;20480;-69
2022/09/28 09:49:19;;;;;;;20.92;3.70;;;24.10;61.80;;;;;;4976096;28;20098;-72
2022/09/28 09:52:00;;;;;;;25.58;4.78;;;24.10;62.40;;;;;;4975758;28;20498;-70
2022/09/28 09:54:45;;;;;;;18.63;3.30;;;24.10;62.50;;;;;;4975505;28;20023;-71
2022/09/28 09:57:16;;;;;;;21.58;3.47;;;24.10;61.50;;;;;;4975601;28;20023;-69
2022/09/28 09:59:43;;;;;;;17.30;5.13;;;24.20;62.00;;;;;;4975955;28;20034;-71
2022/09/28 10:02:33;;;;;;;19.08;4.85;;;24.30;62.00;;;;;;4975813;28;20042;-70
2022/09/28 10:05:11;;;;;;;20.35;5.80;;;24.40;61.40;;;;;;4975256;28;20073;-71
2022/09/28 10:07:43;;;;;;;18.95;6.78;;;24.50;61.80;;;;;;4975240;28;20081;-71
2022/09/28 10:10:29;;;;;;;15.75;5.95;;;24.50;61.70;;;;;;4975434;28;20053;-69
2022/09/28 10:12:55;;;;;;;20.00;4.63;;;24.60;60.70;;;;;;4975074;28;20050;-70
2022/09/28 10:15:25;;;;;;;17.92;4.22;;;24.60;61.00;;;;;;4975265;28;20054;-70
2022/09/28 10:17:52;;;;;;;18.83;3.80;;;24.60;61.10;;;;;;4975001;28;20042;-69
2022/09/28 10:20:18;;;;;;;18.08;4.10;;;24.70;60.90;;;;;;4974978;28;20039;-69
2022/09/28 10:22:45;;;;;;;14.05;4.00;;;24.70;60.90;;;;;;4974976;28;20160;-69
2022/09/28 10:25:12;;;;;;;21.17;3.92;;;24.70;60.90;;;;;;4975163;28;20022;-69
2022/09/28 10:27:45;;;;;;;16.55;3.50;;;24.70;60.70;;;;;;4975279;28;20031;-68
2022/09/28 10:30:17;;;;;;;17.25;4.15;;;24.70;60.70;;;;;;4975052;28;20027;-70
2022/09/28 10:32:48;;;;;;;20.40;3.95;;;24.70;60.70;;;;;;4975051;28;20113;-69
2022/09/28 10:35:17;;;;;;;24.90;3.67;;;24.70;60.20;;;;;;4975172;28;20042;-69
2022/09/28 10:37:54;;;;;;;22.88;4.47;;;24.70;59.60;;;;;;4957826;28;20031;-69
2022/09/28 10:40:32;;;;;;;18.13;3.83;;;24.80;59.20;;;;;;4974763;28;20345;-68
2022/09/28 10:43:41;;;;;;;17.38;3.40;;;24.70;58.90;;;;;;4974595;28;20165;-69
2022/09/28 10:46:20;;;;;;;15.00;3.35;;;24.70;59.00;;;;;;4934250;29;20075;-70
2022/09/28 10:49:05;;;;;;;14.18;3.65;;;24.80;59.40;;;;;;4934107;29;20147;-68
2022/09/28 10:51:48;;;;;;;20.85;4.05;;;24.80;59.10;;;;;;4961672;28;20045;-68
2022/09/28 10:54:23;;;;;;;16.35;4.10;;;24.90;58.00;;;;;;4974451;28;20033;-69
2022/09/28 10:56:50;;;;;;;17.20;5.32;;;24.90;59.00;;;;;;4974698;28;20476;-69
2022/09/28 10:59:28;;;;;;;15.40;3.63;;;25.00;58.50;;;;;;4974363;28;20110;-69
2022/09/28 11:02:03;;;;;;;17.38;3.83;;;25.10;58.10;;;;;;4974370;28;20392;-69
2022/09/28 11:04:34;;;;;;;24.10;4.88;;;25.20;58.10;;;;;;4974531;28;20464;-69
2022/09/28 11:07:00;;;;;;;17.60;3.70;;;25.30;57.50;;;;;;4973927;28;20034;-69
2022/09/28 11:09:38;;;;;;;14.00;3.63;;;25.40;57.40;;;;;;4974240;28;20077;-69
2022/09/28 11:12:12;;;;;;;13.70;3.35;;;25.40;56.60;;;;;;4974191;28;20038;-69
2022/09/28 11:14:39;;;;;;;;;;;25.30;57.10;;;;;;4974466;28;20492;-69
2022/09/28 11:17:14;;;;;;;14.00;3.35;;;25.20;55.80;;;;;;4973845;28;19918;-69
2022/09/28 11:19:41;;;;;;;13.85;2.97;;;25.10;57.10;;;;;;4956806;28;20039;-69
2022/09/28 11:22:37;;;;;;;16.80;3.92;;;25.00;57.40;;;;;;4973919;28;20031;-69
2022/09/28 11:25:23;;;;;;;17.08;3.33;;;25.00;56.90;;;;;;4973947;28;20046;-69
2022/09/28 11:27:51;;;;;;;13.35;3.30;;;25.00;56.90;;;;;;4974031;28;20168;-70
2022/09/28 11:30:32;;;;;;;17.83;3.63;;;25.10;57.20;;;;;;4973757;28;20334;-69
2022/09/28 11:33:14;;;;;;;14.98;3.70;;;25.20;56.40;;;;;;4973807;28;20451;-71
2022/09/28 11:35:45;;;;;;;17.02;4.15;;;25.30;57.10;;;;;;4973987;28;20063;-69
2022/09/28 11:39:07;;;;;;;16.85;3.78;;;25.30;56.70;;;;;;4973636;28;20105;-70
2022/09/28 11:41:41;;;;;;;12.70;3.58;;;25.40;56.00;;;;;;4933017;29;20044;-70
2022/09/28 11:44:25;;;;;;;18.55;5.43;;;25.50;55.40;;;;;;4973427;28;20042;-69
2022/09/28 11:47:19;;;;;;;10.82;3.33;;;25.50;55.70;;;;;;4956108;28;20369;-69
2022/09/28 11:50:17;;;;;;;14.52;2.72;;;25.60;54.90;;;;;;4973573;28;20111;-70
2022/09/28 11:52:43;;;;;;;15.20;3.50;;;25.60;54.70;;;;;;4974047;28;20034;-70
2022/09/28 11:55:23;;;;;;;19.15;3.70;;;25.60;55.40;;;;;;4973260;28;20033;-70
2022/09/28 11:58:00;;;;;;;25.10;5.03;;;25.50;55.20;;;;;;4973618;28;20030;-69
2022/09/28 12:00:27;;;;;;;18.08;4.22;;;25.60;55.40;;;;;;4973205;28;20070;-70
2022/09/28 12:03:05;;;;;;;27.10;7.18;;;25.80;55.40;;;;;;4973354;28;20429;-70
2022/09/28 12:05:59;;;;;;;15.43;3.40;;;25.90;55.00;;;;;;4973361;28;20050;-70
2022/09/28 12:08:36;;;;;;;22.10;5.35;;;26.00;53.80;;;;;;4973218;28;20063;-69
2022/09/28 12:11:08;;;;;;;15.80;3.75;;;26.10;53.40;;;;;;4973721;28;20033;-69
2022/09/28 12:13:46;;;;;;;26.95;7.03;;;26.10;53.50;;;;;;4973407;28;20031;-69
2022/09/28 12:16:30;;;;;;;15.20;3.65;;;26.10;53.40;;;;;;4973460;28;20369;-69
2022/09/28 12:19:18;;;;;;;20.00;4.40;;;26.10;53.50;;;;;;4973144;28;20023;-69
2022/09/28 12:21:54;;;;;;;16.20;3.70;;;26.20;52.90;;;;;;4973121;28;20027;-69
2022/09/28 12:24:41;;;;;;;17.40;3.13;;;26.30;53.60;;;;;;4973391;28;20421;-70
2022/09/28 12:27:20;;;;;;;18.65;3.60;;;26.20;52.60;;;;;;4973161;28;20035;-70
2022/09/28 12:30:15;;;;;;;13.32;3.55;;;26.30;52.70;;;;;;4973241;28;20023;-71
2022/09/28 12:33:14;;;;;;;15.65;3.95;;;26.20;52.40;;;;;;4973376;28;20034;-71
2022/09/28 12:35:54;;;;;;;15.25;4.55;;;26.20;53.00;;;;;;4973400;28;20122;-69
2022/09/28 12:38:50;;;;;;;18.85;4.40;;;26.20;52.60;;;;;;4973269;28;20031;-69
2022/09/28 12:41:51;;;;;;;18.50;4.90;;;26.30;52.00;;;;;;4973400;28;20377;-69
2022/09/28 12:44:28;;;;;;;17.00;3.72;;;26.40;51.80;;;;;;4960339;28;20042;-71
2022/09/28 12:47:21;;;;;;;23.45;4.78;;;26.50;52.00;;;;;;4973312;28;20057;-69
2022/09/28 12:50:18;;;;;;;20.23;4.63;;;26.50;51.60;;;;;;4973147;28;20019;-71
2022/09/28 12:53:02;;;;;;;16.13;3.60;;;26.50;52.00;;;;;;4973110;28;20290;-73
2022/09/28 12:55:47;;;;;;;19.52;5.05;;;26.50;52.30;;;;;;4973117;28;20405;-70
2022/09/28 12:58:24;;;;;;;20.27;3.67;;;26.60;51.70;;;;;;4973196;28;20077;-71
2022/09/28 13:01:14;;;;;;;16.92;4.00;;;26.50;52.30;;;;;;4973085;28;20042;-71
2022/09/28 13:04:04;;;;;;;17.92;4.20;;;26.50;51.50;;;;;;4973191;28;20085;-70
2022/09/28 13:06:39;;;;;;;23.08;3.95;;;26.50;51.90;;;;;;4973079;28;20041;-70
2022/09/28 13:09:18;;;;;;;13.75;3.60;;;26.50;51.50;;;;;;4976339;28;20402;-71
2022/09/28 13:11:53;;;;;;;14.60;2.72;;;26.40;51.40;;;;;;4976749;28;20047;-70
2022/09/28 13:14:25;;;;;;;17.83;4.28;;;26.40;51.30;;;;;;4976576;28;20039;-71
2022/09/28 13:17:20;;;;;;;16.58;3.45;;;26.40;51.60;;;;;;4976656;28;20026;-69
2022/09/28 13:20:07;;;;;;;14.93;3.10;;;26.40;52.30;;;;;;4967141;28;20043;-70
2022/09/28 13:22:48;;;;;;;17.08;3.83;;;26.30;51.70;;;;;;4976010;28;20124;-71